createdAt,value
2022-12-17T00:01:00.333Z,6.10
2022-12-17T00:03:29.175Z,4.50
2022-12-17T00:05:57.474Z,3.90
2022-12-17T00:08:25.780Z,6.10
2022-12-17T00:10:53.986Z,4.10
2022-12-17T00:13:23.273Z,3.30
2022-12-17T00:15:53.123Z,6.10
2022-12-17T00:18:22.607Z,5.30
2022-12-17T00:21:00.547Z,5.70
2022-12-17T00:23:28.558Z,3.70
2022-12-17T00:25:57.090Z,4.20
2022-12-17T00:28:25.020Z,4.20
2022-12-17T00:30:53.719Z,4.50
2022-12-17T00:33:21.888Z,5.00
2022-12-17T00:35:54.984Z,4.70
2022-12-17T00:38:24.453Z,6.20
2022-12-17T00:40:53.592Z,4.70
2022-12-17T00:43:22.093Z,5.50
2022-12-17T00:45:51.010Z,6.10
2022-12-17T00:48:20.436Z,7.10
2022-12-17T00:50:49.015Z,6.60
2022-12-17T00:53:17.217Z,7.70
2022-12-17T00:55:45.576Z,7.30
2022-12-17T00:58:13.823Z,8.10
2022-12-17T01:00:42.953Z,6.70
2022-12-17T01:03:13.524Z,5.90
2022-12-17T01:05:41.721Z,4.90
2022-12-17T01:08:13.132Z,4.90
2022-12-17T01:10:41.804Z,4.80
2022-12-17T01:13:16.833Z,3.80
2022-12-17T01:15:45.327Z,6.10
2022-12-17T01:18:20.710Z,6.40
2022-12-17T01:20:48.944Z,5.10
2022-12-17T01:23:17.002Z,4.90
2022-12-17T01:25:56.631Z,5.60
2022-12-17T01:28:26.301Z,6.40
2022-12-17T01:30:57.230Z,4.60
2022-12-17T01:33:25.329Z,3.80
2022-12-17T01:35:58.302Z,5.90
2022-12-17T01:38:26.293Z,4.30
2022-12-17T01:40:54.278Z,4.50
2022-12-17T01:43:37.549Z,6.10
2022-12-17T01:46:06.077Z,7.00
2022-12-17T01:48:41.718Z,3.70
2022-12-17T01:51:09.833Z,3.80
2022-12-17T01:53:46.799Z,3.90
2022-12-17T01:56:15.922Z,3.00
2022-12-17T01:58:44.963Z,4.00
2022-12-17T02:01:13.269Z,3.70
2022-12-17T02:03:41.632Z,3.40
2022-12-17T02:06:12.861Z,3.20
2022-12-17T02:08:53.360Z,2.60
2022-12-17T02:11:55.683Z,4.10
2022-12-17T02:14:45.574Z,3.00
2022-12-17T02:17:19.628Z,4.40
2022-12-17T02:20:17.076Z,4.90
2022-12-17T02:23:10.415Z,1.80
2022-12-17T02:26:04.203Z,1.90
2022-12-17T02:28:34.471Z,4.60
2022-12-17T02:31:03.052Z,3.90
2022-12-17T02:33:32.058Z,3.20
2022-12-17T02:36:05.414Z,2.80
2022-12-17T02:38:34.532Z,3.40
2022-12-17T02:41:05.381Z,3.00
2022-12-17T02:43:35.489Z,3.40
2022-12-17T02:46:06.272Z,2.70
2022-12-17T02:48:37.618Z,2.40
2022-12-17T02:51:06.129Z,5.40
2022-12-17T02:53:35.080Z,2.80
2022-12-17T02:56:03.423Z,2.70
2022-12-17T02:58:31.574Z,2.30
2022-12-17T03:00:59.648Z,4.30
2022-12-17T03:03:27.969Z,2.30
2022-12-17T03:05:56.113Z,2.90
2022-12-17T03:08:24.172Z,2.10
2022-12-17T03:10:52.213Z,3.30
2022-12-17T03:13:28.947Z,2.40
2022-12-17T03:16:08.580Z,2.20
2022-12-17T03:18:37.064Z,3.10
2022-12-17T03:21:06.059Z,2.90
2022-12-17T03:23:34.380Z,3.60
2022-12-17T03:26:04.491Z,2.50
2022-12-17T03:28:32.678Z,2.50
2022-12-17T03:31:01.104Z,2.70
2022-12-17T03:33:29.405Z,2.10
2022-12-17T03:35:57.984Z,3.60
2022-12-17T03:38:26.198Z,2.70
2022-12-17T03:40:55.095Z,3.30
2022-12-17T03:43:23.418Z,2.30
2022-12-17T03:45:55.196Z,3.80
2022-12-17T03:48:23.388Z,3.80
2022-12-17T03:50:52.847Z,2.10
2022-12-17T03:53:20.799Z,2.20
2022-12-17T03:55:49.760Z,1.50
2022-12-17T03:58:17.843Z,1.90
2022-12-17T04:00:46.108Z,2.30
2022-12-17T04:03:14.178Z,1.10
2022-12-17T04:05:42.990Z,2.20
2022-12-17T04:08:10.996Z,3.40
2022-12-17T04:10:39.168Z,3.10
2022-12-17T04:13:07.122Z,2.70
2022-12-17T04:15:35.179Z,3.60
2022-12-17T04:18:03.513Z,2.90
2022-12-17T04:20:31.543Z,3.90
2022-12-17T04:22:59.628Z,3.00
2022-12-17T04:25:28.034Z,3.40
2022-12-17T04:27:55.978Z,3.40
2022-12-17T04:30:23.910Z,2.70
2022-12-17T04:32:52.037Z,2.90
2022-12-17T04:35:20.254Z,2.40
2022-12-17T04:37:48.716Z,3.90
2022-12-17T04:40:16.838Z,1.50
2022-12-17T04:42:44.947Z,1.60
2022-12-17T04:45:12.942Z,2.30
2022-12-17T04:47:41.124Z,1.80
2022-12-17T04:50:09.123Z,2.20
2022-12-17T04:52:37.254Z,2.50
2022-12-17T04:55:06.031Z,4.70
2022-12-17T04:57:34.010Z,2.40
2022-12-17T05:00:01.919Z,1.70
2022-12-17T05:02:30.090Z,1.80
2022-12-17T05:04:58.451Z,1.60
2022-12-17T05:07:26.650Z,2.70
2022-12-17T05:09:54.855Z,1.90
2022-12-17T05:12:23.064Z,1.20
2022-12-17T05:14:51.197Z,2.30
2022-12-17T05:17:19.552Z,1.40
2022-12-17T05:19:47.482Z,1.70
2022-12-17T05:22:15.448Z,1.90
2022-12-17T05:24:44.003Z,2.30
2022-12-17T05:27:12.057Z,2.50
2022-12-17T05:29:40.401Z,3.30
2022-12-17T05:32:08.446Z,2.50
2022-12-17T05:34:37.263Z,1.90
2022-12-17T05:37:05.306Z,3.50
2022-12-17T05:39:33.447Z,2.60
2022-12-17T05:42:01.542Z,2.00
2022-12-17T05:44:29.527Z,3.40
2022-12-17T05:46:58.465Z,2.10
2022-12-17T05:49:26.869Z,2.50
2022-12-17T05:51:55.530Z,3.10
2022-12-17T05:54:23.779Z,2.40
2022-12-17T05:56:52.315Z,2.10
2022-12-17T05:59:20.233Z,1.90
2022-12-17T06:01:48.837Z,1.90
2022-12-17T06:04:17.300Z,3.70
2022-12-17T06:06:45.385Z,2.30
2022-12-17T06:09:13.539Z,3.10
2022-12-17T06:11:41.622Z,4.90
2022-12-17T06:14:09.769Z,2.00
2022-12-17T06:16:38.288Z,3.40
2022-12-17T06:19:06.463Z,3.50
2022-12-17T06:21:34.819Z,2.20
2022-12-17T06:24:02.890Z,2.10
2022-12-17T06:26:31.009Z,2.60
2022-12-17T06:28:59.333Z,2.00
2022-12-17T06:31:28.067Z,1.80
2022-12-17T06:33:58.818Z,2.50
2022-12-17T06:36:26.952Z,2.90
2022-12-17T06:38:55.242Z,2.60
2022-12-17T06:41:23.446Z,2.70
2022-12-17T06:43:51.669Z,2.20
2022-12-17T06:46:19.845Z,2.10
2022-12-17T06:48:47.883Z,2.00
2022-12-17T06:51:15.960Z,1.60
2022-12-17T06:53:44.412Z,1.30
2022-12-17T06:56:12.728Z,3.20
2022-12-17T06:58:40.826Z,1.80
2022-12-17T07:01:08.934Z,3.10
2022-12-17T07:03:37.543Z,2.80
2022-12-17T07:06:05.979Z,1.40
2022-12-17T07:08:34.066Z,2.50
2022-12-17T07:11:02.978Z,2.00
2022-12-17T07:13:31.244Z,1.70
2022-12-17T07:15:59.832Z,1.70
2022-12-17T07:18:27.980Z,2.00
2022-12-17T07:20:55.916Z,2.20
2022-12-17T07:23:24.102Z,2.70
2022-12-17T07:25:52.374Z,1.20
2022-12-17T07:28:20.496Z,1.30
2022-12-17T07:30:54.155Z,10.70
2022-12-17T07:33:23.707Z,2.70
2022-12-17T07:35:56.096Z,1.60
2022-12-17T07:38:24.107Z,2.20
2022-12-17T07:40:52.086Z,1.50
2022-12-17T07:43:20.101Z,4.10
2022-12-17T07:45:48.241Z,3.30
2022-12-17T07:48:16.386Z,2.40
2022-12-17T07:50:49.056Z,1.60
2022-12-17T07:53:17.185Z,1.60
2022-12-17T07:55:45.348Z,2.70
2022-12-17T07:58:13.455Z,6.40
2022-12-17T08:00:46.015Z,2.10
2022-12-17T08:03:17.810Z,3.50
2022-12-17T08:05:45.913Z,3.00
2022-12-17T08:08:14.650Z,4.20
2022-12-17T08:10:43.724Z,3.80
2022-12-17T08:13:14.209Z,2.70
2022-12-17T08:15:43.961Z,3.60
2022-12-17T08:18:12.289Z,2.80
2022-12-17T08:20:40.288Z,2.60
2022-12-17T08:23:08.333Z,2.80
2022-12-17T08:25:36.407Z,3.70
2022-12-17T08:28:10.910Z,6.20
2022-12-17T08:30:48.526Z,3.10
2022-12-17T08:33:16.657Z,2.60
2022-12-17T08:35:51.936Z,1.80
2022-12-17T08:38:19.888Z,1.90
2022-12-17T08:40:48.156Z,5.10
2022-12-17T08:43:16.272Z,2.40
2022-12-17T08:45:49.102Z,4.40
2022-12-17T08:48:17.277Z,4.70
2022-12-17T08:50:45.356Z,4.30
2022-12-17T08:53:13.503Z,3.40
2022-12-17T08:55:41.616Z,3.70
2022-12-17T08:58:09.644Z,4.60
2022-12-17T09:00:37.766Z,3.60
2022-12-17T09:03:05.867Z,3.40
2022-12-17T09:05:33.960Z,3.70
2022-12-17T09:08:04.762Z,5.60
2022-12-17T09:10:32.949Z,3.30
2022-12-17T09:13:05.287Z,2.80
2022-12-17T09:15:34.187Z,4.30
2022-12-17T09:18:02.189Z,3.10
2022-12-17T09:20:30.313Z,2.70
2022-12-17T09:22:58.815Z,1.40
2022-12-17T09:25:26.838Z,2.30
2022-12-17T09:27:55.029Z,1.90
2022-12-17T09:30:23.230Z,1.30
2022-12-17T09:32:51.419Z,2.50
2022-12-17T09:35:19.808Z,2.50
2022-12-17T09:37:55.362Z,2.20
2022-12-17T09:40:24.970Z,1.00
2022-12-17T09:43:02.162Z,1.40
2022-12-17T09:45:56.519Z,1.30
2022-12-17T09:48:36.136Z,1.20
2022-12-17T09:51:05.167Z,1.80
2022-12-17T09:53:42.809Z,1.40
2022-12-17T09:56:14.061Z,1.20
2022-12-17T09:58:42.093Z,0.90
2022-12-17T10:01:25.100Z,1.40
2022-12-17T10:03:53.349Z,1.30
2022-12-17T10:06:29.030Z,2.60
2022-12-17T10:09:00.788Z,1.60
2022-12-17T10:11:34.533Z,2.20
2022-12-17T10:14:11.390Z,1.80
2022-12-17T10:16:46.382Z,1.60
2022-12-17T10:19:36.907Z,1.90
2022-12-17T10:22:14.396Z,2.00
2022-12-17T10:24:45.947Z,1.90
2022-12-17T10:27:20.291Z,0.90
2022-12-17T10:29:49.095Z,2.50
2022-12-17T10:32:17.214Z,0.70
2022-12-17T10:34:47.300Z,2.00
2022-12-17T10:37:20.149Z,1.70
2022-12-17T10:39:59.572Z,1.70
2022-12-17T10:42:34.507Z,1.10
2022-12-17T10:45:19.539Z,0.90
2022-12-17T10:47:47.542Z,1.30
2022-12-17T10:50:17.332Z,1.40
2022-12-17T10:52:47.011Z,1.90
2022-12-17T10:55:23.174Z,3.30
2022-12-17T10:57:52.887Z,2.40
2022-12-17T11:00:28.908Z,1.40
2022-12-17T11:02:57.581Z,2.00
2022-12-17T11:05:30.576Z,5.60
2022-12-17T11:08:01.027Z,1.10
2022-12-17T11:10:32.169Z,1.40
2022-12-17T11:13:05.427Z,2.40
2022-12-17T11:15:45.218Z,1.40
2022-12-17T11:18:19.755Z,2.20
2022-12-17T11:20:58.919Z,1.40
2022-12-17T11:23:28.118Z,0.90
2022-12-17T11:26:02.900Z,0.80
2022-12-17T11:28:35.218Z,1.40
2022-12-17T11:31:13.661Z,1.60
2022-12-17T11:33:57.697Z,1.30
2022-12-17T11:36:45.806Z,0.90
2022-12-17T11:39:24.668Z,3.40
2022-12-17T11:42:16.777Z,1.60
2022-12-17T11:45:23.662Z,1.40
2022-12-17T11:48:01.261Z,2.90
2022-12-17T11:50:42.057Z,4.60
2022-12-17T11:53:27.695Z,1.40
2022-12-17T11:56:20.998Z,1.30
2022-12-17T11:58:55.865Z,2.40
2022-12-17T12:01:35.097Z,1.20
2022-12-17T12:04:36.001Z,2.00
2022-12-17T12:07:20.027Z,1.90
2022-12-17T12:09:58.026Z,1.40
2022-12-17T12:12:41.360Z,1.20
2022-12-17T12:15:39.710Z,3.10
2022-12-17T12:18:20.230Z,3.40
2022-12-17T12:21:20.115Z,1.50
2022-12-17T12:23:59.974Z,3.20
2022-12-17T12:26:43.144Z,1.70
2022-12-17T12:29:23.975Z,2.30
2022-12-17T12:32:06.260Z,2.80
2022-12-17T12:34:38.335Z,1.90
2022-12-17T12:37:08.075Z,2.90
2022-12-17T12:39:48.178Z,1.50
2022-12-17T12:42:42.231Z,4.10
2022-12-17T12:45:21.472Z,3.30
2022-12-17T12:47:59.549Z,2.30
2022-12-17T12:50:43.297Z,3.60
2022-12-17T12:53:13.069Z,2.50
2022-12-17T12:55:43.513Z,3.60
2022-12-17T12:58:27.658Z,2.10
2022-12-17T13:00:56.256Z,1.10
2022-12-17T13:03:30.547Z,2.10
2022-12-17T13:06:01.054Z,1.90
2022-12-17T13:08:29.053Z,1.70
2022-12-17T13:10:57.555Z,1.30
2022-12-17T13:13:40.079Z,3.40
2022-12-17T13:16:42.335Z,2.80
2022-12-17T13:19:39.332Z,4.30
2022-12-17T13:22:23.328Z,2.00
2022-12-17T13:24:55.083Z,1.40
2022-12-17T13:27:35.160Z,2.10
2022-12-17T13:30:18.461Z,3.30
2022-12-17T13:33:16.143Z,3.10
2022-12-17T13:36:09.373Z,3.20
2022-12-17T13:39:03.761Z,2.40
2022-12-17T13:41:35.190Z,1.70
2022-12-17T13:44:17.620Z,2.80
2022-12-17T13:46:48.292Z,2.50
2022-12-17T13:49:21.310Z,3.50
2022-12-17T13:52:06.489Z,1.90
2022-12-17T13:54:38.062Z,4.90
2022-12-17T13:57:11.372Z,3.90
2022-12-17T13:59:40.201Z,2.70
2022-12-17T14:02:27.669Z,2.30
2022-12-17T14:05:01.711Z,2.10
2022-12-17T14:07:38.330Z,4.50
2022-12-17T14:10:16.398Z,2.20
2022-12-17T14:12:45.343Z,3.70
2022-12-17T14:15:32.675Z,3.10
2022-12-17T14:18:02.577Z,1.70
2022-12-17T14:20:34.185Z,1.30
2022-12-17T14:23:22.561Z,2.30
2022-12-17T14:25:51.272Z,2.80
2022-12-17T14:28:38.253Z,3.30
2022-12-17T14:31:26.725Z,3.60
2022-12-17T14:34:04.514Z,2.30
2022-12-17T14:36:34.753Z,2.90
2022-12-17T14:39:06.726Z,3.00
2022-12-17T14:41:39.141Z,5.00
2022-12-17T14:44:18.494Z,3.10
2022-12-17T14:47:14.328Z,2.70
2022-12-17T14:49:58.668Z,4.40
2022-12-17T14:52:39.043Z,4.90
2022-12-17T14:55:52.056Z,5.80
2022-12-17T14:58:27.399Z,6.30
2022-12-17T15:01:10.122Z,3.40
2022-12-17T15:03:42.312Z,3.50
2022-12-17T15:06:13.510Z,2.70
2022-12-17T15:08:47.236Z,3.40
2022-12-17T15:11:18.627Z,4.30
2022-12-17T15:13:49.190Z,2.00
2022-12-17T15:16:21.306Z,4.20
2022-12-17T15:18:49.372Z,1.90
2022-12-17T15:21:19.482Z,4.00
2022-12-17T15:23:48.217Z,7.50
2022-12-17T15:26:16.323Z,4.50
2022-12-17T15:28:44.833Z,3.50
2022-12-17T15:31:17.822Z,3.20
2022-12-17T15:33:48.760Z,4.30
2022-12-17T15:36:17.243Z,4.80
2022-12-17T15:38:45.267Z,2.70
2022-12-17T15:41:13.255Z,3.60
2022-12-17T15:43:41.496Z,2.00
2022-12-17T15:46:09.661Z,4.30
2022-12-17T15:48:38.070Z,4.20
2022-12-17T15:51:06.672Z,3.20
2022-12-17T15:53:35.097Z,3.80
2022-12-17T15:56:03.913Z,7.00
2022-12-17T15:58:32.168Z,5.00
2022-12-17T16:01:00.295Z,6.60
2022-12-17T16:03:28.466Z,3.00
2022-12-17T16:05:56.841Z,4.20
2022-12-17T16:08:24.808Z,4.80
2022-12-17T16:10:52.836Z,4.10
2022-12-17T16:13:20.983Z,6.60
2022-12-17T16:16:03.682Z,2.90
2022-12-17T16:18:32.830Z,6.90
2022-12-17T16:21:06.129Z,5.70
2022-12-17T16:23:35.352Z,7.10
2022-12-17T16:26:05.635Z,3.60
2022-12-17T16:28:35.678Z,3.80
2022-12-17T16:31:09.563Z,5.80
2022-12-17T16:33:41.203Z,7.10
2022-12-17T16:36:12.949Z,5.40
2022-12-17T16:38:50.767Z,6.30
2022-12-17T16:41:20.473Z,10.10
2022-12-17T16:43:48.973Z,6.50
2022-12-17T16:46:33.059Z,7.50
2022-12-17T16:49:16.453Z,4.90
2022-12-17T16:51:46.989Z,4.80
2022-12-17T16:54:17.869Z,6.40
2022-12-17T16:56:47.805Z,7.10
2022-12-17T16:59:17.086Z,7.40
2022-12-17T17:01:48.343Z,5.50
2022-12-17T17:04:18.915Z,6.70
2022-12-17T17:06:57.611Z,4.60
2022-12-17T17:09:26.375Z,8.50
2022-12-17T17:11:58.226Z,7.40
2022-12-17T17:14:26.811Z,6.50
2022-12-17T17:16:54.815Z,5.20
2022-12-17T17:19:23.195Z,4.50
2022-12-17T17:21:53.766Z,8.90
2022-12-17T17:24:23.967Z,5.00
2022-12-17T17:26:53.101Z,4.50
2022-12-17T17:29:21.431Z,6.20
2022-12-17T17:34:38.789Z,4.50
2022-12-17T17:37:07.403Z,12.70
2022-12-17T17:39:36.049Z,15.30
2022-12-17T17:42:04.697Z,7.70
2022-12-17T17:44:32.878Z,7.90
2022-12-17T17:47:01.430Z,9.40
2022-12-17T17:49:29.482Z,5.40
2022-12-17T17:52:13.319Z,9.40
2022-12-17T17:54:41.512Z,10.10
2022-12-17T17:57:11.257Z,8.80
2022-12-17T17:59:39.446Z,12.50
2022-12-17T18:02:10.156Z,6.40
2022-12-17T18:04:38.527Z,7.00
2022-12-17T18:07:24.708Z,10.20
2022-12-17T18:09:54.678Z,8.70
2022-12-17T18:12:22.938Z,8.00
2022-12-17T18:15:13.797Z,7.80
2022-12-17T18:17:39.240Z,11.50
2022-12-17T18:20:07.842Z,7.30
2022-12-17T18:22:35.981Z,12.50
2022-12-17T18:25:05.434Z,9.80
2022-12-17T18:27:33.467Z,9.60
2022-12-17T18:30:01.722Z,10.10
2022-12-17T18:32:29.936Z,6.40
2022-12-17T18:34:58.069Z,4.50
2022-12-17T18:37:26.292Z,3.70
2022-12-17T18:39:54.433Z,3.10
2022-12-17T18:42:22.489Z,6.00
2022-12-17T18:44:50.652Z,4.40
2022-12-17T18:47:18.939Z,12.00
2022-12-17T18:49:47.235Z,5.10
2022-12-17T18:52:17.392Z,6.20
2022-12-17T18:54:45.779Z,7.50
2022-12-17T18:57:13.937Z,7.20
2022-12-17T18:59:42.260Z,3.60
2022-12-17T19:02:12.392Z,5.90
2022-12-17T19:04:41.321Z,7.90
2022-12-17T19:07:10.068Z,7.70
2022-12-17T19:09:38.967Z,10.20
2022-12-17T19:12:08.824Z,6.90
2022-12-17T19:14:37.296Z,8.90
2022-12-17T19:17:05.460Z,7.60
2022-12-17T19:19:34.171Z,8.00
2022-12-17T19:22:02.396Z,8.70
2022-12-17T19:24:30.671Z,9.60
2022-12-17T19:26:58.654Z,10.30
2022-12-17T19:29:26.967Z,6.70
2022-12-17T19:31:55.267Z,6.80
2022-12-17T19:34:23.703Z,7.10
2022-12-17T19:36:51.752Z,11.90
2022-12-17T19:39:20.502Z,6.70
2022-12-17T19:41:49.935Z,7.40
2022-12-17T19:44:18.938Z,7.60
2022-12-17T19:46:49.109Z,9.50
2022-12-17T19:49:17.439Z,9.20
2022-12-17T19:51:45.647Z,8.00
2022-12-17T19:54:14.755Z,7.60
2022-12-17T19:56:45.130Z,9.90
2022-12-17T19:59:14.563Z,9.80
2022-12-17T20:01:44.904Z,12.10
2022-12-17T20:04:15.554Z,11.50
2022-12-17T20:06:45.410Z,11.70
2022-12-17T20:09:13.880Z,12.20
2022-12-17T20:11:42.559Z,12.40
2022-12-17T20:14:19.804Z,10.40
2022-12-17T20:16:54.847Z,9.70
2022-12-17T20:19:26.055Z,10.80
2022-12-17T20:21:54.959Z,13.20
2022-12-17T20:24:30.356Z,10.80
2022-12-17T20:27:01.184Z,10.80
2022-12-17T20:29:29.603Z,11.60
2022-12-17T20:31:57.791Z,11.60
2022-12-17T20:34:25.998Z,11.60
2022-12-17T20:36:54.215Z,11.70
2022-12-17T20:39:27.093Z,11.40
2022-12-17T20:41:57.108Z,12.00
2022-12-17T20:44:25.929Z,11.70
2022-12-17T20:46:54.007Z,12.40
2022-12-17T20:49:22.494Z,11.80
2022-12-17T20:51:50.806Z,12.10
2022-12-17T20:54:18.888Z,11.30
2022-12-17T20:56:47.197Z,12.80
2022-12-17T20:59:17.741Z,11.10
2022-12-17T21:01:50.364Z,11.40
2022-12-17T21:04:20.010Z,11.80
2022-12-17T21:06:48.475Z,12.60
2022-12-17T21:09:17.488Z,11.40
2022-12-17T21:11:46.204Z,11.80
2022-12-17T21:14:16.877Z,11.30
2022-12-17T21:16:45.771Z,11.40
2022-12-17T21:19:16.861Z,10.90
2022-12-17T21:21:45.430Z,11.20
2022-12-17T21:24:13.763Z,11.30
2022-12-17T21:26:43.935Z,11.40
2022-12-17T21:29:12.103Z,10.00
2022-12-17T21:31:46.951Z,8.90
2022-12-17T21:34:21.494Z,9.20
2022-12-17T21:36:50.366Z,9.30
2022-12-17T21:39:19.584Z,9.00
2022-12-17T21:41:48.257Z,8.70
2022-12-17T21:44:16.636Z,8.40
2022-12-17T21:46:50.118Z,9.70
2022-12-17T21:49:18.985Z,8.80
2022-12-17T21:51:47.411Z,8.70
2022-12-17T21:54:19.614Z,8.90
2022-12-17T21:56:49.408Z,9.10
2022-12-17T21:59:18.099Z,10.80
2022-12-17T22:01:46.252Z,8.90
2022-12-17T22:04:14.935Z,8.90
2022-12-17T22:06:46.280Z,8.80
2022-12-17T22:09:18.367Z,9.20
2022-12-17T22:11:51.042Z,9.00
2022-12-17T22:14:21.303Z,9.00
2022-12-17T22:16:49.898Z,9.00
2022-12-17T22:19:22.457Z,10.20
2022-12-17T22:21:55.405Z,10.20
2022-12-17T22:24:26.810Z,9.90
2022-12-17T22:26:57.788Z,9.70
2022-12-17T22:29:27.667Z,9.40
2022-12-17T22:31:55.738Z,10.10
2022-12-17T22:35:24.288Z,10.50
2022-12-17T22:40:26.891Z,10.10
2022-12-17T22:44:29.144Z,10.40
2022-12-17T22:44:46.140Z,9.80
2022-12-17T22:45:39.531Z,7.20
2022-12-17T22:48:09.684Z,9.50
2022-12-17T22:50:59.715Z,9.70
2022-12-17T22:53:26.401Z,10.00
2022-12-17T22:55:54.690Z,10.20
2022-12-17T22:58:23.596Z,10.50
2022-12-17T23:00:51.585Z,10.80
2022-12-17T23:03:19.750Z,10.00
2022-12-17T23:05:47.987Z,12.10
2022-12-17T23:08:16.275Z,10.70
